»·PEaware :: N143VT KTUS-KSAN

N143VT :: KTUS-KSAN

FLIGHT INFORMATION

Flight Status: Arrived
Operator: Privately registered:
United States
More flights under this callsign
Pilot: Anonymous 16492 (16492)
Aircraft: BOMBARDIER BD-100 CHALLENGER 300
(CL30)
More flights by this aircraft type
Origin: KTUS Tucson Intl
United States
Destination: KSAN San Diego Intl-Lindbergh
United States
More flights between these airports :: More routes between these airports
Route: +WLDKT3 GBN V66 IPL LUCKI1
File this flight plan on PilotEdge
Remarks:
Altitude:
(Current/Filed)
36,000ft
Speed:
(Current/Filed)
400kts
Departed: 10-May-18 06:29 PM
Arrived: 10-May-18 07:30 PM
Distance/Time
Traveled:
318nm/1:01
Distance/Time
To Go:
Arrived

Flight Plot

Page will automatically refresh every two minutes.

Flight plan parsing failed; only flown route is shown


Map Options




Map Legend


Flown Route
Filed Route
Departure Airport
Arrival Airport
Navaid (VOR, NDB)
Fix

Horizontal Profiles

Position Reports

Time Latitude Longitude Heading Altitude Ground
Speed
10-May-18 18:10 32.123298 -110.943577 226 2649ft 0kts
10-May-18 18:11 32.123298 -110.943577 226 2649ft 0kts
10-May-18 18:12 32.123298 -110.943577 226 2649ft 0kts
10-May-18 18:13 32.123298 -110.943577 226 2649ft 0kts
10-May-18 18:14 32.123298 -110.943577 226 2649ft 0kts
10-May-18 18:15 32.123298 -110.943577 226 2649ft 0kts
10-May-18 18:16 32.123298 -110.943577 226 2649ft 0kts
10-May-18 18:17 32.123298 -110.943577 226 2649ft 0kts
10-May-18 18:18 32.123298 -110.943577 226 2649ft 0kts
10-May-18 18:19 32.123298 -110.943577 226 2649ft 0kts
10-May-18 18:20 32.123298 -110.943577 226 2649ft 0kts
10-May-18 18:21 32.123298 -110.943577 226 2649ft 0kts
10-May-18 18:22 32.120853 -110.942440 135 2649ft 24kts
10-May-18 18:23 32.114695 -110.935212 135 2649ft 24kts
10-May-18 18:24 32.110367 -110.930145 134 2649ft 28kts
10-May-18 18:25 32.103543 -110.922131 134 2649ft 21kts
10-May-18 18:26 32.102732 -110.922163 225 2649ft 0kts
10-May-18 18:27 32.102732 -110.922163 225 2649ft 0kts
10-May-18 18:28 32.102330 -110.923064 285 2649ft 15kts
10-May-18 18:29 32.114347 -110.937403 314 2797ft 166kts
10-May-18 18:30 32.156928 -110.986552 311 5555ft 255kts
10-May-18 18:31 32.206899 -111.046070 312 8729ft 266kts
10-May-18 18:32 32.230735 -111.127282 279 11329ft 276kts
10-May-18 18:33 32.245569 -111.217970 277 13922ft 286kts
10-May-18 18:34 32.259755 -111.311433 276 16328ft 294kts
10-May-18 18:35 32.274885 -111.415038 276 16961ft 359kts
10-May-18 18:36 32.321471 -111.528356 300 16940ft 404kts
10-May-18 18:37 32.383808 -111.641741 300 19693ft 418kts
10-May-18 18:38 32.448089 -111.756833 299 22194ft 429kts
10-May-18 18:39 32.514290 -111.875197 299 24477ft 435kts
10-May-18 18:40 32.579800 -111.992545 298 27272ft 421kts
10-May-18 18:41 32.643171 -112.106428 298 29845ft 407kts
10-May-18 18:42 32.694114 -112.198234 298 31829ft 395kts
10-May-18 18:43 32.753277 -112.305140 298 34010ft 382kts
10-May-18 18:44 32.810919 -112.409585 298 35690ft 379kts
10-May-18 18:45 32.871211 -112.519217 298 35747ft 415kts
10-May-18 18:46 32.932481 -112.640571 287 35741ft 434kts
10-May-18 18:47 32.938545 -112.776938 262 35746ft 415kts
10-May-18 18:48 32.923438 -112.911551 260 35745ft 407kts
10-May-18 18:49 32.903313 -113.064934 259 35744ft 401kts
10-May-18 18:50 32.888580 -113.173090 259 35743ft 397kts
10-May-18 18:51 32.870760 -113.302222 259 35742ft 393kts
10-May-18 18:52 32.853009 -113.429646 259 35741ft 390kts
10-May-18 18:53 32.835234 -113.556227 259 35739ft 388kts
10-May-18 18:54 32.817460 -113.681834 258 35742ft 386kts
10-May-18 18:55 32.799718 -113.806291 258 35737ft 385kts
10-May-18 18:56 32.781712 -113.931660 258 35736ft 385kts
10-May-18 18:57 32.775453 -114.058441 266 35735ft 386kts
10-May-18 18:58 32.773729 -114.185660 266 35734ft 385kts
10-May-18 18:59 32.772129 -114.312488 266 35733ft 385kts
10-May-18 19:00 32.770457 -114.439381 266 35732ft 385kts
10-May-18 19:01 32.768672 -114.566375 266 35731ft 385kts
10-May-18 19:02 32.766623 -114.687102 266 35738ft 386kts
10-May-18 19:03 32.764237 -114.814396 266 35737ft 387kts
10-May-18 19:04 32.761723 -114.941502 266 35491ft 385kts
10-May-18 19:05 32.759035 -115.069248 266 34011ft 392kts
10-May-18 19:06 32.756183 -115.199308 267 30983ft 403kts
10-May-18 19:07 32.753127 -115.333422 267 27237ft 413kts
10-May-18 19:08 32.749945 -115.466641 267 24660ft 380kts
10-May-18 19:09 32.749561 -115.587209 269 22561ft 361kts
10-May-18 19:10 32.750174 -115.699996 269 21359ft 352kts
10-May-18 19:11 32.750749 -115.812415 269 19536ft 334kts
10-May-18 19:12 32.751155 -115.905349 269 17526ft 324kts
10-May-18 19:13 32.751536 -116.010013 269 15098ft 312kts
10-May-18 19:14 32.751821 -116.110684 269 12553ft 300kts
10-May-18 19:15 32.752017 -116.207513 269 11754ft 294kts
10-May-18 19:16 32.750198 -116.304554 264 11829ft 278kts
10-May-18 19:17 32.743682 -116.392003 264 10653ft 264kts
10-May-18 19:18 32.737000 -116.478691 264 9984ft 270kts
10-May-18 19:19 32.728914 -116.566663 263 8708ft 269kts
10-May-18 19:20 32.720796 -116.651122 263 7990ft 257kts
10-May-18 19:21 32.714377 -116.732062 264 6284ft 254kts
10-May-18 19:22 32.708515 -116.806060 264 6092ft 213kts
10-May-18 19:23 32.690100 -116.871692 250 5013ft 208kts
10-May-18 19:24 32.673568 -116.929044 259 4232ft 181kts
10-May-18 19:25 32.684377 -116.983515 283 3171ft 164kts
10-May-18 19:26 32.695791 -117.031664 283 2502ft 133kts
10-May-18 19:27 32.705285 -117.071308 284 2033ft 126kts
10-May-18 19:28 32.717893 -117.124073 284 1448ft 191kts
10-May-18 19:29 32.730208 -117.175949 286 110ft 137kts
10-May-18 19:30 32.734818 -117.198325 174 24ft 13kts
10-May-18 19:31 32.733181 -117.191787 58 24ft 14kts
10-May-18 19:32 32.733776 -117.185657 107 24ft 25kts
10-May-18 19:33 32.732684 -117.181273 106 23ft 0kts
10-May-18 19:34 32.731611 -117.176094 99 23ft 11kts
10-May-18 19:35 32.731607 -117.176032 101 22ft 0kts
10-May-18 19:36 32.731656 -117.175289 78 20ft 0kts
10-May-18 19:37 32.731656 -117.175289 78 20ft 0kts
10-May-18 19:38 32.731656 -117.175289 78 20ft 0kts
10-May-18 19:39 32.731656 -117.175289 78 20ft 0kts
10-May-18 19:40 32.731656 -117.175289 78 20ft 0kts
10-May-18 19:41 32.731656 -117.175289 78 20ft 0kts
10-May-18 19:42 32.731656 -117.175289 78 20ft 0kts
10-May-18 19:43 32.731656 -117.175289 78 20ft 0kts
10-May-18 19:44 32.731656 -117.175289 78 20ft 0kts

Navigation Log

Ident Type
Flight plan parsing failed, navigation log unavailable